createdAt,value
2023-08-17T02:34:09.838Z,83559.94
2023-08-17T02:36:47.333Z,83550.50
2023-08-17T02:39:27.130Z,83545.88
2023-08-17T02:42:02.298Z,83551.16
2023-08-17T02:44:36.457Z,83549.94
2023-08-17T02:47:12.814Z,83547.66
2023-08-17T02:49:52.890Z,83549.09
2023-08-17T02:55:16.128Z,83535.28
2023-08-17T02:57:56.519Z,83540.97
2023-08-17T03:00:30.698Z,83533.13
2023-08-17T03:03:04.279Z,83539.72
2023-08-17T03:05:41.884Z,83529.06
2023-08-17T03:08:19.192Z,83530.50
2023-08-17T03:10:57.032Z,83524.56
2023-08-17T03:13:31.425Z,83521.44
2023-08-17T03:16:05.448Z,83520.94
2023-08-17T03:18:39.535Z,83524.47
2023-08-17T03:21:27.615Z,83521.75
2023-08-17T03:24:02.254Z,83521.94
2023-08-17T03:26:38.805Z,83525.09
2023-08-17T03:29:25.573Z,83515.13
2023-08-17T03:32:06.959Z,83520.03
2023-08-17T03:34:41.066Z,83516.59
2023-08-17T03:40:08.797Z,83513.34
2023-08-17T03:43:10.092Z,83524.97
2023-08-17T03:45:53.220Z,83512.44
2023-08-17T03:48:30.443Z,83517.16
2023-08-17T03:51:08.369Z,83512.50
2023-08-17T03:53:45.780Z,83515.84
2023-08-17T03:56:23.802Z,83518.06
2023-08-17T03:58:57.592Z,83510.78
2023-08-17T04:01:32.031Z,83512.84
2023-08-17T04:04:05.673Z,83513.53
2023-08-17T04:06:42.401Z,83506.34
2023-08-17T04:09:20.708Z,83512.22
2023-08-17T04:11:54.252Z,83508.34
2023-08-17T04:14:28.174Z,83505.66
2023-08-17T04:17:04.163Z,83512.34
2023-08-17T04:19:37.926Z,83501.69
2023-08-17T04:22:11.237Z,83509.63
2023-08-17T04:24:51.199Z,83509.63
2023-08-17T04:27:25.089Z,83508.25
2023-08-17T04:30:20.250Z,83506.88
2023-08-17T04:32:55.867Z,83504.31
2023-08-17T04:35:36.364Z,83501.63
2023-08-17T04:38:10.147Z,83508.38
2023-08-17T04:40:47.784Z,83499.78
2023-08-17T04:43:24.807Z,83505.84
2023-08-17T04:45:58.269Z,83499.84
2023-08-17T04:48:33.146Z,83499.09
2023-08-17T04:51:10.302Z,83504.56
2023-08-17T04:53:44.413Z,83497.94
2023-08-17T04:56:32.288Z,83489.25
2023-08-17T04:59:08.965Z,83492.59
2023-08-17T05:01:52.128Z,83495.94
2023-08-17T05:04:26.090Z,83496.63
2023-08-17T05:06:59.709Z,83489.38
2023-08-17T05:09:35.174Z,83491.97
2023-08-17T05:12:09.212Z,83490.34
2023-08-17T05:14:45.782Z,83494.41
2023-08-17T05:17:19.552Z,83487.06
2023-08-17T05:19:53.045Z,83476.22
2023-08-17T05:22:28.289Z,83487.53
2023-08-17T05:25:05.142Z,83484.31
2023-08-17T05:27:40.294Z,83478.25
2023-08-17T05:30:20.232Z,83482.91
2023-08-17T05:32:54.072Z,83480.41
2023-08-17T05:35:29.053Z,83471.72
2023-08-17T05:38:05.175Z,83473.63
2023-08-17T05:40:38.887Z,83469.00
2023-08-17T05:43:14.832Z,83461.00
2023-08-17T05:45:52.638Z,83467.69
2023-08-17T05:48:36.954Z,83463.78
2023-08-17T05:51:10.982Z,83451.84
2023-08-17T05:53:52.052Z,83459.88
2023-08-17T05:56:30.543Z,83457.19
2023-08-17T05:59:04.791Z,83446.59
2023-08-17T06:01:45.276Z,83440.72
2023-08-17T06:04:32.710Z,83447.97
2023-08-17T06:07:09.418Z,83447.31
2023-08-17T06:09:49.577Z,83445.38
2023-08-17T06:12:23.690Z,83443.38
2023-08-17T06:14:59.442Z,83440.06
2023-08-17T06:17:47.634Z,83437.50
2023-08-17T06:20:21.322Z,83436.84
2023-08-17T06:23:00.120Z,83436.19
2023-08-17T06:26:12.848Z,83434.88
2023-08-17T06:28:46.033Z,83441.63
2023-08-17T06:31:22.715Z,83428.97
2023-08-17T06:34:00.119Z,83432.41
2023-08-17T06:36:40.663Z,83430.97
2023-08-17T06:39:15.103Z,83423.56
2023-08-17T06:41:57.066Z,83408.94
2023-08-17T06:44:32.208Z,83419.59
2023-08-17T06:47:06.322Z,83415.56
2023-08-17T06:49:43.390Z,83410.22
2023-08-17T06:52:32.708Z,83409.63
2023-08-17T06:55:18.166Z,83414.28
2023-08-17T06:58:02.390Z,83409.63
2023-08-17T07:00:43.309Z,83402.28
2023-08-17T07:03:20.181Z,83403.72
2023-08-17T07:06:06.635Z,83396.44
2023-08-17T07:08:40.364Z,83396.50
2023-08-17T07:11:15.378Z,83387.75
2023-08-17T07:13:49.612Z,83389.81
2023-08-17T07:16:25.593Z,83389.81
2023-08-17T07:19:12.924Z,83380.44
2023-08-17T07:21:52.512Z,83377.75
2023-08-17T07:24:30.505Z,83378.56
2023-08-17T07:27:15.097Z,83368.00
2023-08-17T07:29:48.310Z,83382.22
2023-08-17T07:32:21.912Z,83380.97
2023-08-17T07:34:56.099Z,83379.53
2023-08-17T07:37:36.001Z,83373.53
2023-08-17T07:40:20.581Z,83377.44
2023-08-17T07:42:54.684Z,83372.78
2023-08-17T07:45:28.909Z,83360.19
2023-08-17T07:50:48.650Z,83360.78
2023-08-17T07:53:28.643Z,83358.75
2023-08-17T07:56:04.928Z,83360.19
2023-08-17T07:58:55.429Z,83364.88
2023-08-17T08:01:29.876Z,83367.56
2023-08-17T08:04:04.465Z,83361.59
2023-08-17T08:06:38.378Z,83360.91
2023-08-17T08:09:39.103Z,83360.97
2023-08-17T08:12:19.068Z,83357.06
2023-08-17T08:15:03.725Z,83361.13
2023-08-17T08:17:49.592Z,83355.06
2023-08-17T08:20:24.419Z,83365.78
2023-08-17T08:22:59.268Z,83359.84
2023-08-17T08:25:37.801Z,83359.78
2023-08-17T08:28:18.022Z,83358.47
2023-08-17T08:30:52.236Z,83353.75
2023-08-17T08:33:27.285Z,83358.41
2023-08-17T08:36:05.629Z,83356.53
2023-08-17T08:38:39.436Z,83352.50
2023-08-17T08:44:17.947Z,83358.66
2023-08-17T08:46:51.729Z,83355.31
2023-08-17T08:49:28.398Z,83358.81
2023-08-17T08:52:07.623Z,83364.34
2023-08-17T08:54:41.815Z,83362.19
2023-08-17T08:57:23.039Z,83364.81
2023-08-17T09:00:00.226Z,83363.44
2023-08-17T09:02:34.228Z,83366.13
2023-08-17T09:05:15.683Z,83358.03
2023-08-17T09:07:54.296Z,83367.41
2023-08-17T09:10:31.722Z,83367.34
2023-08-17T09:13:06.536Z,83365.38
2023-08-17T09:15:46.733Z,83362.69
2023-08-17T09:18:22.612Z,83367.34
2023-08-17T09:20:59.209Z,83363.44
2023-08-17T09:23:34.541Z,83369.41
2023-08-17T09:26:17.332Z,83374.06
2023-08-17T09:28:54.609Z,83372.69
2023-08-17T09:31:31.794Z,83370.06
2023-08-17T09:34:12.552Z,83370.16
2023-08-17T09:36:47.046Z,83373.44
2023-08-17T09:39:24.469Z,83380.06
2023-08-17T09:42:08.919Z,83376.03
2023-08-17T09:44:44.992Z,83375.38
2023-08-17T09:47:24.432Z,83377.34
2023-08-17T09:49:59.224Z,83378.69
2023-08-17T09:52:41.701Z,83378.72
2023-08-17T09:55:29.585Z,83372.75
2023-08-17T09:58:18.117Z,83368.16
2023-08-17T10:00:53.478Z,83374.16
2023-08-17T10:03:37.237Z,83366.91
2023-08-17T10:06:12.485Z,83371.00
2023-08-17T10:08:49.655Z,83375.03
2023-08-17T10:11:26.341Z,83369.56
2023-08-17T10:14:05.226Z,83366.84
2023-08-17T10:16:43.374Z,83370.06
2023-08-17T10:19:37.160Z,83377.34
2023-08-17T10:22:26.014Z,83367.91
2023-08-17T10:25:00.788Z,83371.91
2023-08-17T10:27:40.213Z,83375.22
2023-08-17T10:30:18.169Z,83378.56
2023-08-17T10:32:52.260Z,83375.91
2023-08-17T10:35:30.446Z,83384.00
2023-08-17T10:38:10.604Z,83377.22
2023-08-17T10:40:46.500Z,83378.69
2023-08-17T10:43:23.455Z,83381.25
2023-08-17T10:45:57.547Z,83383.91
2023-08-17T10:48:41.736Z,83392.59
2023-08-17T10:51:20.150Z,83395.28
2023-08-17T10:54:11.191Z,83395.91
2023-08-17T10:56:47.246Z,83397.94
2023-08-17T10:59:32.653Z,83399.25
2023-08-17T11:02:06.791Z,83404.59
2023-08-17T11:04:47.492Z,83415.28
2023-08-17T11:07:30.893Z,83421.25
2023-08-17T11:10:17.272Z,83418.59
2023-08-17T11:12:53.446Z,83409.88
2023-08-17T11:15:27.322Z,83411.84
2023-08-17T11:18:03.199Z,83415.84
2023-08-17T11:20:37.168Z,83415.22
2023-08-17T11:23:14.804Z,83423.91
2023-08-17T11:25:49.158Z,83419.25
2023-08-17T11:31:12.390Z,83420.56
2023-08-17T11:34:26.575Z,83428.59
2023-08-17T11:37:05.957Z,83423.25
2023-08-17T11:39:48.658Z,83433.22
2023-08-17T11:42:37.498Z,83434.53
2023-08-17T11:48:09.341Z,83437.19
2023-08-17T11:50:44.658Z,83440.63
2023-08-17T11:53:36.384Z,83435.97
2023-08-17T11:56:23.031Z,83443.91
2023-08-17T11:58:58.574Z,83445.22
2023-08-17T12:01:34.972Z,83454.56
2023-08-17T12:04:11.652Z,83455.97
2023-08-17T12:07:10.901Z,83455.28
2023-08-17T12:09:52.250Z,83450.63
2023-08-17T12:12:48.615Z,83459.91
2023-08-17T12:15:27.808Z,83462.53
2023-08-17T12:18:08.900Z,83461.22
2023-08-17T12:20:44.563Z,83469.22
2023-08-17T12:23:20.166Z,83480.00
2023-08-17T12:26:02.356Z,83478.69
2023-08-17T12:28:47.599Z,83478.69
2023-08-17T12:31:30.891Z,83481.97
2023-08-17T12:34:05.033Z,83480.66
2023-08-17T12:36:54.583Z,83483.34
2023-08-17T12:39:31.179Z,83486.63
2023-08-17T12:42:05.228Z,83488.00
2023-08-17T12:44:43.190Z,83490.00
2023-08-17T12:47:43.259Z,83488.00
2023-08-17T12:50:19.489Z,83493.25
2023-08-17T12:52:53.475Z,83492.66
2023-08-17T12:55:27.292Z,83501.41
2023-08-17T13:00:53.960Z,83506.22
2023-08-17T13:03:32.715Z,83507.56
2023-08-17T13:06:06.558Z,83511.56
2023-08-17T13:11:50.436Z,83516.75
2023-08-17T13:17:11.549Z,83526.75
2023-08-17T13:19:48.641Z,83528.09
2023-08-17T13:22:41.331Z,83540.25
2023-08-17T13:25:15.930Z,83537.56
2023-08-17T13:28:01.776Z,83542.75
2023-08-17T13:30:51.498Z,83538.78
2023-08-17T13:33:31.986Z,83542.09
2023-08-17T13:36:12.500Z,83540.03
2023-08-17T13:38:49.735Z,83542.63
2023-08-17T13:41:23.990Z,83549.88
2023-08-17T13:44:00.320Z,83551.88
2023-08-17T13:46:34.895Z,83552.50
2023-08-17T13:49:09.950Z,83547.84
2023-08-17T13:51:57.340Z,83546.53
2023-08-17T13:54:46.392Z,83549.34
2023-08-17T13:57:56.341Z,83543.31
2023-08-17T14:00:32.348Z,83547.44
2023-08-17T14:03:26.983Z,83548.09
2023-08-17T14:06:00.708Z,83542.69
2023-08-17T14:08:44.059Z,83539.97
2023-08-17T14:11:17.660Z,83540.66
2023-08-17T14:13:51.592Z,83542.00
2023-08-17T14:16:33.846Z,83544.06
2023-08-17T14:19:13.072Z,83552.75
2023-08-17T14:21:55.328Z,83546.13
2023-08-17T14:25:03.567Z,83536.75
2023-08-17T14:27:41.870Z,83536.78
2023-08-17T14:30:15.845Z,83538.09
2023-08-17T14:32:50.578Z,83526.06
2023-08-17T14:35:30.742Z,83529.34
2023-08-17T14:38:23.674Z,83530.66
2023-08-17T14:40:57.385Z,83532.63
2023-08-17T14:43:38.850Z,83521.97
2023-08-17T14:49:15.815Z,83512.03
2023-08-17T14:52:00.642Z,83504.03
2023-08-17T14:57:17.851Z,83503.47
2023-08-17T15:00:04.236Z,83508.09
2023-08-17T15:02:44.051Z,83505.38
2023-08-17T15:05:18.600Z,83501.34
2023-08-17T15:08:07.624Z,83508.06
2023-08-17T15:11:04.128Z,83500.03
2023-08-17T15:13:43.001Z,83504.03
2023-08-17T15:19:26.994Z,83495.38
2023-08-17T15:24:49.518Z,83502.72
2023-08-17T15:27:29.775Z,83504.69
2023-08-17T15:30:03.430Z,83501.34
2023-08-17T15:32:43.272Z,83495.44
2023-08-17T15:35:19.059Z,83507.53
2023-08-17T15:38:02.959Z,83513.63
2023-08-17T15:40:39.323Z,83515.44
2023-08-17T15:43:15.851Z,83521.06
2023-08-17T15:45:53.996Z,83514.84
2023-08-17T15:48:31.446Z,83512.03
2023-08-17T15:51:09.176Z,83519.19
2023-08-17T15:53:45.941Z,83515.47
2023-08-17T15:56:23.592Z,83526.69
2023-08-17T15:59:09.217Z,83528.91
2023-08-17T16:01:46.631Z,83525.47
2023-08-17T16:04:28.203Z,83514.50
2023-08-17T16:07:01.912Z,83509.16
2023-08-17T16:09:43.696Z,83517.06
2023-08-17T16:12:27.949Z,83515.75
2023-08-17T16:15:05.730Z,83516.66
2023-08-17T16:17:51.411Z,83517.06
2023-08-17T16:20:28.642Z,83515.59
2023-08-17T16:25:49.714Z,83508.28
2023-08-17T16:28:25.658Z,83511.28
2023-08-17T16:31:04.334Z,83514.81
2023-08-17T16:33:43.002Z,83518.28
2023-08-17T16:36:20.375Z,83514.00
2023-08-17T16:38:55.724Z,83514.00
2023-08-17T16:41:29.632Z,83512.75
2023-08-17T16:44:06.279Z,83524.25
2023-08-17T16:46:39.690Z,83520.91
2023-08-17T16:49:35.639Z,83514.75
2023-08-17T16:52:15.027Z,83523.50
2023-08-17T16:54:48.879Z,83528.34
2023-08-17T16:57:24.271Z,83527.84
2023-08-17T16:59:57.980Z,83537.16
2023-08-17T17:02:32.119Z,83535.13
2023-08-17T17:05:07.619Z,83535.81
2023-08-17T17:07:45.230Z,83544.16
2023-08-17T17:10:29.577Z,83542.81
2023-08-17T17:13:27.008Z,83552.13
2023-08-17T17:16:00.645Z,83551.38
2023-08-17T17:18:36.086Z,83555.44
2023-08-17T17:21:11.690Z,83556.16
2023-08-17T17:23:50.047Z,83570.06
2023-08-17T17:26:24.363Z,83575.47
2023-08-17T17:28:58.540Z,83576.69
2023-08-17T17:31:32.114Z,83580.00
2023-08-17T17:34:05.958Z,83581.34
2023-08-17T17:36:39.684Z,83572.53
2023-08-17T17:39:16.325Z,83576.50
2023-08-17T17:41:50.412Z,83569.75
2023-08-17T17:44:25.935Z,83579.06
2023-08-17T17:47:09.134Z,83575.06
2023-08-17T17:49:42.982Z,83573.75
2023-08-17T17:52:16.757Z,83566.38
2023-08-17T17:54:53.149Z,83569.66
2023-08-17T17:57:27.621Z,83562.19
2023-08-17T18:00:01.668Z,83569.78
2023-08-17T18:02:37.631Z,83561.78
2023-08-17T18:05:11.722Z,83561.06
2023-08-17T18:07:47.153Z,83555.59
2023-08-17T18:10:23.858Z,83550.94
2023-08-17T18:12:58.145Z,83559.47
2023-08-17T18:15:31.806Z,83553.59
2023-08-17T18:18:06.062Z,83557.44
2023-08-17T18:20:40.958Z,83563.50
2023-08-17T18:23:14.494Z,83569.53
2023-08-17T18:25:51.885Z,83568.16
2023-08-17T18:28:26.505Z,83568.94
2023-08-17T18:31:00.385Z,83565.50
2023-08-17T18:33:34.073Z,83569.59
2023-08-17T18:36:08.026Z,83570.22
2023-08-17T18:38:41.570Z,83573.59
2023-08-17T18:41:18.927Z,83568.16
2023-08-17T18:43:53.262Z,83570.91
2023-08-17T18:46:28.209Z,83566.84
2023-08-17T18:49:03.239Z,83576.25
2023-08-17T18:51:37.322Z,83576.25
2023-08-17T18:54:10.921Z,83578.28
2023-08-17T18:56:47.972Z,83578.91
2023-08-17T18:59:22.102Z,83562.16
2023-08-17T19:01:55.851Z,83563.59
2023-08-17T19:04:29.670Z,83564.28
2023-08-17T19:07:04.043Z,83562.91
2023-08-17T19:09:43.707Z,83568.13
2023-08-17T19:12:23.062Z,83565.44
2023-08-17T19:14:57.299Z,83573.44
2023-08-17T19:17:31.689Z,83561.34
2023-08-17T19:20:05.560Z,83557.56
2023-08-17T19:22:39.372Z,83560.16
2023-08-17T19:25:13.140Z,83555.44
2023-08-17T19:27:50.143Z,83560.03
2023-08-17T19:30:24.263Z,83563.38
2023-08-17T19:33:03.569Z,83554.78
2023-08-17T19:35:37.124Z,83553.47
2023-08-17T19:38:10.941Z,83551.28
2023-08-17T19:40:47.268Z,83561.38
2023-08-17T19:43:26.768Z,83561.38
2023-08-17T19:46:04.231Z,83566.69
2023-08-17T19:48:37.916Z,83563.19
2023-08-17T19:51:11.658Z,83566.72
2023-08-17T19:53:45.221Z,83569.84
2023-08-17T19:56:18.568Z,83572.00
2023-08-17T19:58:55.726Z,83570.06
2023-08-17T20:01:29.505Z,83567.34
2023-08-17T20:04:03.047Z,83574.59
2023-08-17T20:06:37.649Z,83570.56
2023-08-17T20:09:13.354Z,83565.84
2023-08-17T20:11:48.624Z,83578.28
2023-08-17T20:14:25.671Z,83574.94
2023-08-17T20:16:58.928Z,83576.28
2023-08-17T20:19:35.377Z,83575.59
2023-08-17T20:22:08.830Z,83578.97
2023-08-17T20:24:42.425Z,83567.09
2023-08-17T20:27:16.627Z,83565.03
2023-08-17T20:29:56.093Z,83578.22
2023-08-17T20:32:29.857Z,83579.06
2023-08-17T20:35:03.726Z,83578.44
2023-08-17T20:37:37.289Z,83577.25
2023-08-17T20:40:10.946Z,83579.81
2023-08-17T20:42:44.420Z,83583.91
2023-08-17T20:45:20.986Z,83584.00
2023-08-17T20:47:55.049Z,83588.03
2023-08-17T20:50:28.524Z,83586.03
2023-08-17T20:53:02.426Z,83584.59
2023-08-17T20:55:36.078Z,83587.63
2023-08-17T20:58:09.605Z,83586.97
2023-08-17T21:00:47.078Z,83583.72
2023-08-17T21:03:20.804Z,83588.50
2023-08-17T21:05:54.745Z,83582.47
2023-08-17T21:08:28.261Z,83581.19
2023-08-17T21:11:01.408Z,83567.84
2023-08-17T21:13:35.088Z,83564.56
2023-08-17T21:16:13.036Z,83573.88
2023-08-17T21:18:46.767Z,83579.59
2023-08-17T21:21:20.044Z,83579.31
2023-08-17T21:23:53.512Z,83579.81
2023-08-17T21:26:27.462Z,83588.41
2023-08-17T21:29:00.658Z,83588.47
2023-08-17T21:31:36.976Z,83596.47
2023-08-17T21:34:10.784Z,83594.56
2023-08-17T21:36:43.858Z,83593.88
2023-08-17T21:39:17.964Z,83597.31
2023-08-17T21:41:51.438Z,83595.50
2023-08-17T21:44:28.536Z,83583.56
2023-08-17T21:47:05.104Z,83585.47
2023-08-17T21:49:38.662Z,83583.47
2023-08-17T21:52:12.294Z,83566.72
2023-08-17T21:54:46.365Z,83574.53
2023-08-17T21:57:21.879Z,83576.19
2023-08-17T21:59:55.294Z,83566.53
2023-08-17T22:02:32.203Z,83577.47
2023-08-17T22:05:05.781Z,83588.81
2023-08-17T22:07:39.653Z,83584.84
2023-08-17T22:10:13.574Z,83582.03
2023-08-17T22:12:46.862Z,83584.25
2023-08-17T22:15:21.251Z,83584.69
2023-08-17T22:17:58.086Z,83579.31
2023-08-17T22:20:31.388Z,83588.69
2023-08-17T22:23:05.192Z,83585.28
2023-08-17T22:25:39.297Z,83589.72
2023-08-17T22:28:13.847Z,83590.47
2023-08-17T22:30:48.493Z,83588.53
2023-08-17T22:33:28.418Z,83588.47
2023-08-17T22:36:02.526Z,83599.84
2023-08-17T22:38:36.386Z,83604.69
2023-08-17T22:41:10.355Z,83605.38
2023-08-17T22:43:44.371Z,83604.69
2023-08-17T22:46:17.866Z,83597.94
2023-08-17T22:48:55.145Z,83601.88
2023-08-17T22:51:28.778Z,83604.50
2023-08-17T22:54:05.594Z,83599.75
2023-08-17T22:56:39.817Z,83600.50
2023-08-17T22:59:15.521Z,83599.56
2023-08-17T23:01:49.717Z,83590.88
2023-08-17T23:04:28.977Z,83591.69
2023-08-17T23:07:03.345Z,83593.69
2023-08-17T23:09:49.449Z,83600.31
2023-08-17T23:12:24.845Z,83602.84
2023-08-17T23:14:58.903Z,83591.81
2023-08-17T23:17:33.242Z,83598.47
2023-08-17T23:20:11.446Z,83590.47
2023-08-17T23:22:48.436Z,83593.81
2023-08-17T23:25:24.207Z,83590.72
2023-08-17T23:27:58.811Z,83582.88
2023-08-17T23:30:32.753Z,83596.63
2023-08-17T23:33:07.253Z,83597.84
2023-08-17T23:35:44.810Z,83604.22
2023-08-17T23:38:19.335Z,83598.16
2023-08-17T23:41:05.256Z,83598.56
2023-08-17T23:43:39.073Z,83616.22
2023-08-17T23:46:21.660Z,83610.91
2023-08-17T23:48:56.248Z,83608.41
2023-08-17T23:51:35.419Z,83609.16
2023-08-17T23:54:17.542Z,83603.28
2023-08-17T23:56:51.343Z,83603.28
2023-08-17T23:59:25.637Z,83598.78
